sensor_id;sensor_type;location;lat;lon;timestamp;P1;durP1;ratioP1;P2;durP2;ratioP2
77872;SDS011;67068;52.116;4.440;2023-05-07T00:01:28;11.73;;;4.97;;
77872;SDS011;67068;52.116;4.440;2023-05-07T00:03:54;12.63;;;5.60;;
77872;SDS011;67068;52.116;4.440;2023-05-07T00:06:19;11.23;;;5.37;;
77872;SDS011;67068;52.116;4.440;2023-05-07T00:08:45;11.60;;;5.53;;
77872;SDS011;67068;52.116;4.440;2023-05-07T00:11:10;11.57;;;5.10;;
77872;SDS011;67068;52.116;4.440;2023-05-07T00:13:35;10.63;;;5.20;;
77872;SDS011;67068;52.116;4.440;2023-05-07T00:16:03;10.53;;;5.10;;
77872;SDS011;67068;52.116;4.440;2023-05-07T00:20:54;9.82;;;4.35;;
77872;SDS011;67068;52.116;4.440;2023-05-07T00:23:19;11.90;;;5.47;;
77872;SDS011;67068;52.116;4.440;2023-05-07T00:25:44;11.20;;;5.20;;
77872;SDS011;67068;52.116;4.440;2023-05-07T00:28:09;10.43;;;5.07;;
77872;SDS011;67068;52.116;4.440;2023-05-07T00:30:35;11.03;;;5.17;;
77872;SDS011;67068;52.116;4.440;2023-05-07T00:33:00;11.90;;;5.67;;
77872;SDS011;67068;52.116;4.440;2023-05-07T00:35:25;11.25;;;5.35;;
77872;SDS011;67068;52.116;4.440;2023-05-07T00:37:50;10.27;;;5.03;;
77872;SDS011;67068;52.116;4.440;2023-05-07T00:40:16;13.43;;;5.23;;
77872;SDS011;67068;52.116;4.440;2023-05-07T00:42:41;11.43;;;4.90;;
77872;SDS011;67068;52.116;4.440;2023-05-07T00:45:06;9.53;;;5.00;;
77872;SDS011;67068;52.116;4.440;2023-05-07T00:47:32;11.23;;;5.30;;
77872;SDS011;67068;52.116;4.440;2023-05-07T00:49:58;11.43;;;4.73;;
77872;SDS011;67068;52.116;4.440;2023-05-07T00:52:23;11.43;;;5.05;;
77872;SDS011;67068;52.116;4.440;2023-05-07T00:54:50;10.23;;;5.00;;
77872;SDS011;67068;52.116;4.440;2023-05-07T00:57:16;10.70;;;5.30;;
77872;SDS011;67068;52.116;4.440;2023-05-07T00:59:41;10.57;;;4.57;;
77872;SDS011;67068;52.116;4.440;2023-05-07T01:02:06;10.50;;;4.80;;
77872;SDS011;67068;52.116;4.440;2023-05-07T01:04:32;11.63;;;4.63;;
77872;SDS011;67068;52.116;4.440;2023-05-07T01:06:57;11.03;;;4.90;;
77872;SDS011;67068;52.116;4.440;2023-05-07T01:09:24;10.23;;;4.78;;
77872;SDS011;67068;52.116;4.440;2023-05-07T01:11:50;12.02;;;4.97;;
77872;SDS011;67068;52.116;4.440;2023-05-07T01:14:16;9.95;;;4.60;;
77872;SDS011;67068;52.116;4.440;2023-05-07T01:16:42;9.93;;;4.70;;
77872;SDS011;67068;52.116;4.440;2023-05-07T01:19:07;12.43;;;5.13;;
77872;SDS011;67068;52.116;4.440;2023-05-07T01:21:33;12.52;;;5.50;;
77872;SDS011;67068;52.116;4.440;2023-05-07T01:23:59;10.93;;;5.63;;
77872;SDS011;67068;52.116;4.440;2023-05-07T01:26:25;10.55;;;5.22;;
77872;SDS011;67068;52.116;4.440;2023-05-07T01:28:50;13.83;;;5.30;;
77872;SDS011;67068;52.116;4.440;2023-05-07T01:31:15;10.43;;;4.57;;
77872;SDS011;67068;52.116;4.440;2023-05-07T01:33:41;11.30;;;5.10;;
77872;SDS011;67068;52.116;4.440;2023-05-07T01:36:09;11.45;;;5.53;;
77872;SDS011;67068;52.116;4.440;2023-05-07T01:38:36;10.70;;;5.25;;
77872;SDS011;67068;52.116;4.440;2023-05-07T01:41:02;10.95;;;5.03;;
77872;SDS011;67068;52.116;4.440;2023-05-07T01:43:28;11.85;;;5.50;;
77872;SDS011;67068;52.116;4.440;2023-05-07T01:45:53;11.68;;;4.80;;
77872;SDS011;67068;52.116;4.440;2023-05-07T01:48:19;10.25;;;5.20;;
77872;SDS011;67068;52.116;4.440;2023-05-07T01:50:45;10.73;;;5.72;;
77872;SDS011;67068;52.116;4.440;2023-05-07T01:53:10;11.23;;;5.13;;
77872;SDS011;67068;52.116;4.440;2023-05-07T01:55:35;10.17;;;5.27;;
77872;SDS011;67068;52.116;4.440;2023-05-07T01:58:02;11.18;;;5.03;;
77872;SDS011;67068;52.116;4.440;2023-05-07T02:00:27;11.05;;;4.85;;
77872;SDS011;67068;52.116;4.440;2023-05-07T02:02:52;12.98;;;5.32;;
77872;SDS011;67068;52.116;4.440;2023-05-07T02:05:18;10.70;;;4.78;;
77872;SDS011;67068;52.116;4.440;2023-05-07T02:07:43;10.53;;;5.03;;
77872;SDS011;67068;52.116;4.440;2023-05-07T02:10:08;9.93;;;5.00;;
77872;SDS011;67068;52.116;4.440;2023-05-07T02:12:34;10.98;;;5.75;;
77872;SDS011;67068;52.116;4.440;2023-05-07T02:15:01;10.93;;;5.50;;
77872;SDS011;67068;52.116;4.440;2023-05-07T02:17:26;10.90;;;5.47;;
77872;SDS011;67068;52.116;4.440;2023-05-07T02:19:51;11.07;;;5.47;;
77872;SDS011;67068;52.116;4.440;2023-05-07T02:22:16;12.13;;;5.63;;
77872;SDS011;67068;52.116;4.440;2023-05-07T02:24:41;11.20;;;5.70;;
77872;SDS011;67068;52.116;4.440;2023-05-07T02:27:07;11.37;;;5.90;;
77872;SDS011;67068;52.116;4.440;2023-05-07T02:29:32;12.07;;;5.60;;
77872;SDS011;67068;52.116;4.440;2023-05-07T02:31:57;10.83;;;4.80;;
77872;SDS011;67068;52.116;4.440;2023-05-07T02:34:22;11.83;;;5.57;;
77872;SDS011;67068;52.116;4.440;2023-05-07T02:36:48;11.50;;;5.17;;
77872;SDS011;67068;52.116;4.440;2023-05-07T02:39:13;10.87;;;5.50;;
77872;SDS011;67068;52.116;4.440;2023-05-07T02:41:39;11.32;;;5.40;;
77872;SDS011;67068;52.116;4.440;2023-05-07T02:44:04;11.38;;;5.45;;
77872;SDS011;67068;52.116;4.440;2023-05-07T02:46:29;10.13;;;5.33;;
77872;SDS011;67068;52.116;4.440;2023-05-07T02:48:54;12.10;;;5.67;;
77872;SDS011;67068;52.116;4.440;2023-05-07T02:51:21;10.73;;;5.33;;
77872;SDS011;67068;52.116;4.440;2023-05-07T02:53:46;11.43;;;5.68;;
77872;SDS011;67068;52.116;4.440;2023-05-07T02:56:11;11.60;;;5.17;;
77872;SDS011;67068;52.116;4.440;2023-05-07T02:58:37;10.30;;;5.20;;
77872;SDS011;67068;52.116;4.440;2023-05-07T03:01:04;11.35;;;5.47;;
77872;SDS011;67068;52.116;4.440;2023-05-07T03:03:29;9.68;;;4.68;;
77872;SDS011;67068;52.116;4.440;2023-05-07T03:05:54;10.43;;;4.97;;
77872;SDS011;67068;52.116;4.440;2023-05-07T03:08:20;11.00;;;5.13;;
77872;SDS011;67068;52.116;4.440;2023-05-07T03:10:45;10.77;;;5.50;;
77872;SDS011;67068;52.116;4.440;2023-05-07T03:13:11;10.60;;;5.03;;
77872;SDS011;67068;52.116;4.440;2023-05-07T03:15:36;10.77;;;5.20;;
77872;SDS011;67068;52.116;4.440;2023-05-07T03:18:01;9.80;;;4.90;;
77872;SDS011;67068;52.116;4.440;2023-05-07T03:20:26;9.47;;;4.27;;
77872;SDS011;67068;52.116;4.440;2023-05-07T03:22:52;9.80;;;4.27;;
77872;SDS011;67068;52.116;4.440;2023-05-07T03:25:17;11.07;;;5.23;;
77872;SDS011;67068;52.116;4.440;2023-05-07T03:27:42;10.33;;;4.83;;
77872;SDS011;67068;52.116;4.440;2023-05-07T03:30:08;10.37;;;5.03;;
77872;SDS011;67068;52.116;4.440;2023-05-07T03:32:34;10.32;;;4.85;;
77872;SDS011;67068;52.116;4.440;2023-05-07T03:34:59;10.25;;;4.90;;
77872;SDS011;67068;52.116;4.440;2023-05-07T03:37:25;10.63;;;4.87;;
77872;SDS011;67068;52.116;4.440;2023-05-07T03:39:50;9.00;;;4.77;;
77872;SDS011;67068;52.116;4.440;2023-05-07T03:42:15;9.73;;;4.43;;
77872;SDS011;67068;52.116;4.440;2023-05-07T03:44:40;10.40;;;4.80;;
77872;SDS011;67068;52.116;4.440;2023-05-07T03:47:05;8.97;;;4.00;;
77872;SDS011;67068;52.116;4.440;2023-05-07T03:49:31;9.93;;;4.97;;
77872;SDS011;67068;52.116;4.440;2023-05-07T03:51:56;10.10;;;4.23;;
77872;SDS011;67068;52.116;4.440;2023-05-07T03:54:21;11.10;;;4.60;;
77872;SDS011;67068;52.116;4.440;2023-05-07T03:56:46;9.37;;;4.07;;
77872;SDS011;67068;52.116;4.440;2023-05-07T03:59:12;9.23;;;4.23;;
77872;SDS011;67068;52.116;4.440;2023-05-07T04:01:38;10.13;;;4.40;;
77872;SDS011;67068;52.116;4.440;2023-05-07T04:04:03;9.40;;;3.80;;
77872;SDS011;67068;52.116;4.440;2023-05-07T04:06:29;9.90;;;4.15;;
77872;SDS011;67068;52.116;4.440;2023-05-07T04:08:54;9.43;;;4.60;;
77872;SDS011;67068;52.116;4.440;2023-05-07T04:11:19;8.83;;;3.90;;
77872;SDS011;67068;52.116;4.440;2023-05-07T04:13:45;9.73;;;4.10;;
77872;SDS011;67068;52.116;4.440;2023-05-07T04:16:10;11.40;;;4.35;;
77872;SDS011;67068;52.116;4.440;2023-05-07T04:18:35;11.53;;;4.17;;
77872;SDS011;67068;52.116;4.440;2023-05-07T04:21:01;9.53;;;4.37;;
77872;SDS011;67068;52.116;4.440;2023-05-07T04:23:26;9.07;;;4.00;;
77872;SDS011;67068;52.116;4.440;2023-05-07T04:25:51;9.30;;;3.33;;
77872;SDS011;67068;52.116;4.440;2023-05-07T04:28:16;8.67;;;3.93;;
77872;SDS011;67068;52.116;4.440;2023-05-07T04:30:42;9.35;;;4.47;;
77872;SDS011;67068;52.116;4.440;2023-05-07T04:33:07;8.83;;;3.53;;
77872;SDS011;67068;52.116;4.440;2023-05-07T04:35:33;8.00;;;3.38;;
77872;SDS011;67068;52.116;4.440;2023-05-07T04:37:58;9.07;;;3.40;;
77872;SDS011;67068;52.116;4.440;2023-05-07T04:40:23;8.80;;;3.70;;
77872;SDS011;67068;52.116;4.440;2023-05-07T04:42:49;7.95;;;3.30;;
77872;SDS011;67068;52.116;4.440;2023-05-07T04:45:14;8.30;;;3.80;;
77872;SDS011;67068;52.116;4.440;2023-05-07T04:47:40;9.23;;;3.75;;
77872;SDS011;67068;52.116;4.440;2023-05-07T04:50:06;7.97;;;3.27;;
77872;SDS011;67068;52.116;4.440;2023-05-07T04:52:31;9.55;;;3.85;;
77872;SDS011;67068;52.116;4.440;2023-05-07T04:57:23;8.23;;;3.83;;
77872;SDS011;67068;52.116;4.440;2023-05-07T04:59:48;7.70;;;3.13;;
77872;SDS011;67068;52.116;4.440;2023-05-07T05:02:14;6.93;;;3.07;;
77872;SDS011;67068;52.116;4.440;2023-05-07T05:04:39;8.25;;;3.88;;
77872;SDS011;67068;52.116;4.440;2023-05-07T05:07:04;9.37;;;3.83;;
77872;SDS011;67068;52.116;4.440;2023-05-07T05:09:30;8.30;;;3.03;;
77872;SDS011;67068;52.116;4.440;2023-05-07T05:11:55;7.77;;;3.17;;
77872;SDS011;67068;52.116;4.440;2023-05-07T05:14:20;7.40;;;3.17;;
77872;SDS011;67068;52.116;4.440;2023-05-07T05:16:46;8.17;;;3.40;;
77872;SDS011;67068;52.116;4.440;2023-05-07T05:19:11;7.97;;;3.20;;
77872;SDS011;67068;52.116;4.440;2023-05-07T05:21:36;6.63;;;2.70;;
77872;SDS011;67068;52.116;4.440;2023-05-07T05:24:01;8.50;;;2.87;;
77872;SDS011;67068;52.116;4.440;2023-05-07T05:26:27;8.18;;;3.17;;
77872;SDS011;67068;52.116;4.440;2023-05-07T05:28:52;8.40;;;3.30;;
77872;SDS011;67068;52.116;4.440;2023-05-07T05:31:17;7.50;;;2.80;;
77872;SDS011;67068;52.116;4.440;2023-05-07T05:33:42;7.83;;;3.50;;
77872;SDS011;67068;52.116;4.440;2023-05-07T05:36:10;8.17;;;3.20;;
77872;SDS011;67068;52.116;4.440;2023-05-07T05:38:37;7.35;;;2.67;;
77872;SDS011;67068;52.116;4.440;2023-05-07T05:41:02;7.97;;;3.40;;
77872;SDS011;67068;52.116;4.440;2023-05-07T05:43:27;7.10;;;2.73;;
77872;SDS011;67068;52.116;4.440;2023-05-07T05:45:52;6.33;;;2.50;;
77872;SDS011;67068;52.116;4.440;2023-05-07T05:48:17;6.70;;;2.40;;
77872;SDS011;67068;52.116;4.440;2023-05-07T05:50:43;7.67;;;3.10;;
77872;SDS011;67068;52.116;4.440;2023-05-07T05:53:08;7.77;;;2.63;;
77872;SDS011;67068;52.116;4.440;2023-05-07T05:55:33;6.77;;;2.90;;
77872;SDS011;67068;52.116;4.440;2023-05-07T05:57:59;7.25;;;2.90;;
77872;SDS011;67068;52.116;4.440;2023-05-07T06:00:25;7.20;;;3.00;;
77872;SDS011;67068;52.116;4.440;2023-05-07T06:02:50;7.60;;;3.13;;
77872;SDS011;67068;52.116;4.440;2023-05-07T06:05:15;6.90;;;2.97;;
77872;SDS011;67068;52.116;4.440;2023-05-07T06:07:40;7.00;;;3.10;;
77872;SDS011;67068;52.116;4.440;2023-05-07T06:10:06;7.80;;;3.30;;
77872;SDS011;67068;52.116;4.440;2023-05-07T06:12:31;7.85;;;3.05;;
77872;SDS011;67068;52.116;4.440;2023-05-07T06:14:56;6.43;;;2.60;;
77872;SDS011;67068;52.116;4.440;2023-05-07T06:17:22;6.90;;;2.67;;
77872;SDS011;67068;52.116;4.440;2023-05-07T06:19:47;7.57;;;3.17;;
77872;SDS011;67068;52.116;4.440;2023-05-07T06:22:13;7.18;;;3.00;;
77872;SDS011;67068;52.116;4.440;2023-05-07T06:24:39;6.23;;;2.50;;
77872;SDS011;67068;52.116;4.440;2023-05-07T06:27:04;6.93;;;2.90;;
77872;SDS011;67068;52.116;4.440;2023-05-07T06:29:29;6.93;;;2.80;;
77872;SDS011;67068;52.116;4.440;2023-05-07T06:32:02;8.05;;;2.90;;
77872;SDS011;67068;52.116;4.440;2023-05-07T06:34:30;6.95;;;2.80;;
77872;SDS011;67068;52.116;4.440;2023-05-07T06:36:55;8.50;;;3.10;;
77872;SDS011;67068;52.116;4.440;2023-05-07T06:39:21;7.03;;;3.10;;
77872;SDS011;67068;52.116;4.440;2023-05-07T06:41:46;6.47;;;2.53;;
77872;SDS011;67068;52.116;4.440;2023-05-07T06:44:11;8.67;;;2.90;;
77872;SDS011;67068;52.116;4.440;2023-05-07T06:46:36;6.93;;;2.60;;
77872;SDS011;67068;52.116;4.440;2023-05-07T06:49:02;7.97;;;3.00;;
77872;SDS011;67068;52.116;4.440;2023-05-07T06:51:27;6.20;;;2.63;;
77872;SDS011;67068;52.116;4.440;2023-05-07T06:53:52;6.33;;;2.73;;
77872;SDS011;67068;52.116;4.440;2023-05-07T06:56:18;7.17;;;2.67;;
77872;SDS011;67068;52.116;4.440;2023-05-07T06:58:43;7.57;;;2.43;;
77872;SDS011;67068;52.116;4.440;2023-05-07T07:01:08;6.87;;;2.90;;
77872;SDS011;67068;52.116;4.440;2023-05-07T07:03:33;6.77;;;2.70;;
77872;SDS011;67068;52.116;4.440;2023-05-07T07:05:58;6.80;;;2.37;;
77872;SDS011;67068;52.116;4.440;2023-05-07T07:08:24;6.78;;;2.70;;
77872;SDS011;67068;52.116;4.440;2023-05-07T07:10:49;7.23;;;2.57;;
77872;SDS011;67068;52.116;4.440;2023-05-07T07:13:14;7.73;;;2.63;;
77872;SDS011;67068;52.116;4.440;2023-05-07T07:15:40;6.77;;;2.67;;
77872;SDS011;67068;52.116;4.440;2023-05-07T07:18:05;7.07;;;2.80;;
77872;SDS011;67068;52.116;4.440;2023-05-07T07:20:30;7.50;;;2.53;;
77872;SDS011;67068;52.116;4.440;2023-05-07T07:22:56;6.33;;;2.40;;
77872;SDS011;67068;52.116;4.440;2023-05-07T07:25:21;7.03;;;2.30;;
77872;SDS011;67068;52.116;4.440;2023-05-07T07:27:46;7.87;;;2.70;;
77872;SDS011;67068;52.116;4.440;2023-05-07T07:30:11;7.40;;;2.40;;
77872;SDS011;67068;52.116;4.440;2023-05-07T07:32:37;5.53;;;2.10;;
77872;SDS011;67068;52.116;4.440;2023-05-07T07:35:02;10.35;;;2.70;;
77872;SDS011;67068;52.116;4.440;2023-05-07T07:37:27;8.68;;;2.30;;
77872;SDS011;67068;52.116;4.440;2023-05-07T07:39:52;6.27;;;2.47;;
77872;SDS011;67068;52.116;4.440;2023-05-07T07:42:18;6.93;;;2.60;;
77872;SDS011;67068;52.116;4.440;2023-05-07T07:44:43;7.27;;;2.60;;
77872;SDS011;67068;52.116;4.440;2023-05-07T07:47:08;7.47;;;2.67;;
77872;SDS011;67068;52.116;4.440;2023-05-07T07:49:33;8.10;;;2.50;;
77872;SDS011;67068;52.116;4.440;2023-05-07T07:51:59;5.70;;;2.15;;
77872;SDS011;67068;52.116;4.440;2023-05-07T07:54:25;7.05;;;2.65;;
77872;SDS011;67068;52.116;4.440;2023-05-07T07:56:50;6.22;;;2.17;;
77872;SDS011;67068;52.116;4.440;2023-05-07T07:59:15;8.10;;;2.77;;
77872;SDS011;67068;52.116;4.440;2023-05-07T08:01:43;7.10;;;2.53;;
77872;SDS011;67068;52.116;4.440;2023-05-07T08:04:09;7.43;;;2.55;;
77872;SDS011;67068;52.116;4.440;2023-05-07T08:06:34;8.77;;;2.40;;
77872;SDS011;67068;52.116;4.440;2023-05-07T08:08:59;6.75;;;2.53;;
77872;SDS011;67068;52.116;4.440;2023-05-07T08:11:25;7.43;;;2.10;;
77872;SDS011;67068;52.116;4.440;2023-05-07T08:13:50;6.70;;;2.25;;
77872;SDS011;67068;52.116;4.440;2023-05-07T08:16:15;8.25;;;2.50;;
77872;SDS011;67068;52.116;4.440;2023-05-07T08:18:41;6.40;;;2.00;;
77872;SDS011;67068;52.116;4.440;2023-05-07T08:21:06;6.50;;;2.37;;
77872;SDS011;67068;52.116;4.440;2023-05-07T08:23:31;8.60;;;2.53;;
77872;SDS011;67068;52.116;4.440;2023-05-07T08:25:57;6.43;;;2.50;;
77872;SDS011;67068;52.116;4.440;2023-05-07T08:28:22;7.97;;;2.20;;
77872;SDS011;67068;52.116;4.440;2023-05-07T08:30:49;6.45;;;2.10;;
77872;SDS011;67068;52.116;4.440;2023-05-07T08:33:15;10.25;;;2.35;;
77872;SDS011;67068;52.116;4.440;2023-05-07T08:35:40;8.80;;;2.80;;
77872;SDS011;67068;52.116;4.440;2023-05-07T08:38:05;7.27;;;2.77;;
77872;SDS011;67068;52.116;4.440;2023-05-07T08:40:31;6.77;;;2.20;;
77872;SDS011;67068;52.116;4.440;2023-05-07T08:43:00;6.45;;;2.63;;
77872;SDS011;67068;52.116;4.440;2023-05-07T08:45:26;7.70;;;2.58;;
77872;SDS011;67068;52.116;4.440;2023-05-07T08:47:55;6.93;;;2.33;;
77872;SDS011;67068;52.116;4.440;2023-05-07T08:50:23;6.55;;;2.58;;
77872;SDS011;67068;52.116;4.440;2023-05-07T08:52:48;8.23;;;2.43;;
77872;SDS011;67068;52.116;4.440;2023-05-07T08:55:13;9.27;;;2.93;;
77872;SDS011;67068;52.116;4.440;2023-05-07T08:57:38;8.07;;;2.97;;
77872;SDS011;67068;52.116;4.440;2023-05-07T09:00:04;7.67;;;2.47;;
77872;SDS011;67068;52.116;4.440;2023-05-07T09:02:32;9.80;;;2.42;;
77872;SDS011;67068;52.116;4.440;2023-05-07T09:04:57;7.38;;;2.45;;
77872;SDS011;67068;52.116;4.440;2023-05-07T09:07:22;7.97;;;2.50;;
77872;SDS011;67068;52.116;4.440;2023-05-07T09:09:48;13.75;;;3.47;;
77872;SDS011;67068;52.116;4.440;2023-05-07T09:12:13;7.77;;;2.40;;
77872;SDS011;67068;52.116;4.440;2023-05-07T09:14:38;7.83;;;2.27;;
77872;SDS011;67068;52.116;4.440;2023-05-07T09:17:04;8.68;;;2.75;;
77872;SDS011;67068;52.116;4.440;2023-05-07T09:19:30;8.93;;;2.67;;
77872;SDS011;67068;52.116;4.440;2023-05-07T09:21:58;10.37;;;2.60;;
77872;SDS011;67068;52.116;4.440;2023-05-07T09:24:24;7.72;;;2.42;;
77872;SDS011;67068;52.116;4.440;2023-05-07T09:26:50;7.20;;;2.70;;
77872;SDS011;67068;52.116;4.440;2023-05-07T09:29:15;9.13;;;2.63;;
77872;SDS011;67068;52.116;4.440;2023-05-07T09:31:40;7.95;;;2.35;;
77872;SDS011;67068;52.116;4.440;2023-05-07T09:34:05;7.70;;;2.57;;
77872;SDS011;67068;52.116;4.440;2023-05-07T09:36:31;6.50;;;2.15;;
77872;SDS011;67068;52.116;4.440;2023-05-07T09:38:58;8.43;;;2.42;;
77872;SDS011;67068;52.116;4.440;2023-05-07T09:41:24;9.15;;;2.40;;
77872;SDS011;67068;52.116;4.440;2023-05-07T09:43:53;7.97;;;2.67;;
77872;SDS011;67068;52.116;4.440;2023-05-07T09:46:18;6.45;;;2.20;;
77872;SDS011;67068;52.116;4.440;2023-05-07T09:48:49;6.22;;;2.20;;
77872;SDS011;67068;52.116;4.440;2023-05-07T09:51:30;7.97;;;2.40;;
77872;SDS011;67068;52.116;4.440;2023-05-07T09:53:56;7.63;;;2.20;;
77872;SDS011;67068;52.116;4.440;2023-05-07T09:56:22;5.65;;;1.90;;
77872;SDS011;67068;52.116;4.440;2023-05-07T09:58:47;7.30;;;1.98;;
77872;SDS011;67068;52.116;4.440;2023-05-07T10:01:13;6.50;;;2.00;;
77872;SDS011;67068;52.116;4.440;2023-05-07T10:03:41;6.30;;;2.27;;
77872;SDS011;67068;52.116;4.440;2023-05-07T10:06:09;7.47;;;1.90;;
77872;SDS011;67068;52.116;4.440;2023-05-07T10:08:34;6.28;;;2.17;;
77872;SDS011;67068;52.116;4.440;2023-05-07T10:11:00;7.50;;;2.45;;
77872;SDS011;67068;52.116;4.440;2023-05-07T10:13:26;7.70;;;2.10;;
77872;SDS011;67068;52.116;4.440;2023-05-07T10:15:51;6.68;;;2.20;;
77872;SDS011;67068;52.116;4.440;2023-05-07T10:18:17;6.90;;;2.78;;
77872;SDS011;67068;52.116;4.440;2023-05-07T10:20:43;8.85;;;2.17;;
77872;SDS011;67068;52.116;4.440;2023-05-07T10:23:10;8.20;;;2.42;;
77872;SDS011;67068;52.116;4.440;2023-05-07T10:25:37;6.18;;;1.85;;
77872;SDS011;67068;52.116;4.440;2023-05-07T10:28:05;8.03;;;2.17;;
77872;SDS011;67068;52.116;4.440;2023-05-07T10:30:38;5.97;;;1.98;;
77872;SDS011;67068;52.116;4.440;2023-05-07T10:33:05;9.55;;;2.05;;
77872;SDS011;67068;52.116;4.440;2023-05-07T10:35:32;6.38;;;2.00;;
77872;SDS011;67068;52.116;4.440;2023-05-07T10:38:01;6.05;;;1.90;;
77872;SDS011;67068;52.116;4.440;2023-05-07T10:40:26;9.93;;;2.37;;
77872;SDS011;67068;52.116;4.440;2023-05-07T10:42:58;6.87;;;1.80;;
77872;SDS011;67068;52.116;4.440;2023-05-07T10:45:24;7.25;;;1.98;;
77872;SDS011;67068;52.116;4.440;2023-05-07T10:48:05;6.57;;;2.15;;
77872;SDS011;67068;52.116;4.440;2023-05-07T10:50:30;6.93;;;2.25;;
77872;SDS011;67068;52.116;4.440;2023-05-07T10:55:40;6.82;;;2.40;;
77872;SDS011;67068;52.116;4.440;2023-05-07T11:00:55;7.18;;;2.15;;
77872;SDS011;67068;52.116;4.440;2023-05-07T11:03:20;6.88;;;2.60;;
77872;SDS011;67068;52.116;4.440;2023-05-07T11:05:47;6.30;;;1.83;;
77872;SDS011;67068;52.116;4.440;2023-05-07T11:08:13;7.68;;;2.45;;
77872;SDS011;67068;52.116;4.440;2023-05-07T11:10:55;10.97;;;2.20;;
77872;SDS011;67068;52.116;4.440;2023-05-07T11:16:22;7.75;;;2.17;;
77872;SDS011;67068;52.116;4.440;2023-05-07T11:18:48;7.90;;;2.10;;
77872;SDS011;67068;52.116;4.440;2023-05-07T11:23:58;7.40;;;2.38;;
77872;SDS011;67068;52.116;4.440;2023-05-07T11:26:24;8.02;;;2.80;;
77872;SDS011;67068;52.116;4.440;2023-05-07T11:28:50;10.90;;;2.60;;
77872;SDS011;67068;52.116;4.440;2023-05-07T11:31:17;11.35;;;3.47;;
77872;SDS011;67068;52.116;4.440;2023-05-07T11:33:45;7.47;;;2.90;;
77872;SDS011;67068;52.116;4.440;2023-05-07T11:36:10;9.07;;;3.50;;
77872;SDS011;67068;52.116;4.440;2023-05-07T11:38:36;11.35;;;3.50;;
77872;SDS011;67068;52.116;4.440;2023-05-07T11:41:01;10.05;;;4.43;;
77872;SDS011;67068;52.116;4.440;2023-05-07T11:43:27;12.05;;;5.00;;
77872;SDS011;67068;52.116;4.440;2023-05-07T11:45:53;14.45;;;5.50;;
77872;SDS011;67068;52.116;4.440;2023-05-07T11:48:18;12.10;;;5.20;;
77872;SDS011;67068;52.116;4.440;2023-05-07T11:50:52;10.48;;;4.30;;
77872;SDS011;67068;52.116;4.440;2023-05-07T11:53:18;11.23;;;5.20;;
77872;SDS011;67068;52.116;4.440;2023-05-07T11:55:43;12.75;;;5.85;;
77872;SDS011;67068;52.116;4.440;2023-05-07T11:58:10;16.70;;;7.15;;
77872;SDS011;67068;52.116;4.440;2023-05-07T12:00:35;16.65;;;7.57;;
77872;SDS011;67068;52.116;4.440;2023-05-07T12:03:04;17.03;;;8.07;;
77872;SDS011;67068;52.116;4.440;2023-05-07T12:05:30;15.02;;;7.05;;
77872;SDS011;67068;52.116;4.440;2023-05-07T12:07:56;15.40;;;7.25;;
77872;SDS011;67068;52.116;4.440;2023-05-07T12:10:21;14.43;;;7.13;;
77872;SDS011;67068;52.116;4.440;2023-05-07T12:12:46;15.30;;;7.57;;
77872;SDS011;67068;52.116;4.440;2023-05-07T12:15:15;14.47;;;7.10;;
77872;SDS011;67068;52.116;4.440;2023-05-07T12:17:40;15.68;;;7.25;;
77872;SDS011;67068;52.116;4.440;2023-05-07T12:20:08;18.80;;;8.43;;
77872;SDS011;67068;52.116;4.440;2023-05-07T12:22:33;18.13;;;8.35;;
77872;SDS011;67068;52.116;4.440;2023-05-07T12:24:59;15.50;;;7.78;;
77872;SDS011;67068;52.116;4.440;2023-05-07T12:27:25;22.10;;;9.33;;
77872;SDS011;67068;52.116;4.440;2023-05-07T12:29:50;19.70;;;8.27;;
77872;SDS011;67068;52.116;4.440;2023-05-07T12:32:20;18.03;;;8.10;;
77872;SDS011;67068;52.116;4.440;2023-05-07T12:34:45;20.95;;;8.73;;
77872;SDS011;67068;52.116;4.440;2023-05-07T12:37:11;23.10;;;9.20;;
77872;SDS011;67068;52.116;4.440;2023-05-07T12:39:37;21.75;;;9.27;;
77872;SDS011;67068;52.116;4.440;2023-05-07T12:42:02;21.93;;;10.13;;
77872;SDS011;67068;52.116;4.440;2023-05-07T12:44:31;25.93;;;10.30;;
77872;SDS011;67068;52.116;4.440;2023-05-07T12:47:02;21.77;;;11.35;;
77872;SDS011;67068;52.116;4.440;2023-05-07T12:49:27;23.05;;;11.45;;
77872;SDS011;67068;52.116;4.440;2023-05-07T12:51:53;20.50;;;10.20;;
77872;SDS011;67068;52.116;4.440;2023-05-07T12:54:31;20.48;;;10.18;;
77872;SDS011;67068;52.116;4.440;2023-05-07T12:57:01;20.95;;;11.35;;
77872;SDS011;67068;52.116;4.440;2023-05-07T12:59:33;19.13;;;11.07;;
77872;SDS011;67068;52.116;4.440;2023-05-07T13:01:58;21.17;;;12.40;;
77872;SDS011;67068;52.116;4.440;2023-05-07T13:04:26;23.70;;;11.03;;
77872;SDS011;67068;52.116;4.440;2023-05-07T13:06:51;19.00;;;11.13;;
77872;SDS011;67068;52.116;4.440;2023-05-07T13:09:17;23.47;;;10.93;;
77872;SDS011;67068;52.116;4.440;2023-05-07T13:11:42;21.80;;;11.80;;
77872;SDS011;67068;52.116;4.440;2023-05-07T13:14:07;21.20;;;11.30;;
77872;SDS011;67068;52.116;4.440;2023-05-07T13:16:33;21.45;;;11.80;;
77872;SDS011;67068;52.116;4.440;2023-05-07T13:18:58;23.50;;;11.90;;
77872;SDS011;67068;52.116;4.440;2023-05-07T13:21:26;19.27;;;11.57;;
77872;SDS011;67068;52.116;4.440;2023-05-07T13:23:52;21.58;;;13.02;;
77872;SDS011;67068;52.116;4.440;2023-05-07T13:26:17;19.50;;;12.77;;
77872;SDS011;67068;52.116;4.440;2023-05-07T13:28:43;22.23;;;12.63;;
77872;SDS011;67068;52.116;4.440;2023-05-07T13:31:08;21.15;;;11.77;;
77872;SDS011;67068;52.116;4.440;2023-05-07T13:33:33;20.20;;;11.77;;
77872;SDS011;67068;52.116;4.440;2023-05-07T13:35:59;21.63;;;12.03;;
77872;SDS011;67068;52.116;4.440;2023-05-07T13:38:25;24.40;;;13.20;;
77872;SDS011;67068;52.116;4.440;2023-05-07T13:40:50;20.70;;;12.23;;
77872;SDS011;67068;52.116;4.440;2023-05-07T13:43:16;18.07;;;12.03;;
77872;SDS011;67068;52.116;4.440;2023-05-07T13:45:42;20.90;;;12.57;;
77872;SDS011;67068;52.116;4.440;2023-05-07T13:48:07;20.67;;;12.70;;
77872;SDS011;67068;52.116;4.440;2023-05-07T13:50:33;23.20;;;12.88;;
77872;SDS011;67068;52.116;4.440;2023-05-07T13:52:58;24.00;;;13.37;;
77872;SDS011;67068;52.116;4.440;2023-05-07T13:55:24;23.93;;;12.17;;
77872;SDS011;67068;52.116;4.440;2023-05-07T13:57:59;25.92;;;13.95;;
77872;SDS011;67068;52.116;4.440;2023-05-07T14:00:25;19.45;;;11.40;;
77872;SDS011;67068;52.116;4.440;2023-05-07T14:02:51;22.63;;;11.63;;
77872;SDS011;67068;52.116;4.440;2023-05-07T14:05:16;22.25;;;12.68;;
77872;SDS011;67068;52.116;4.440;2023-05-07T14:07:42;20.30;;;13.40;;
77872;SDS011;67068;52.116;4.440;2023-05-07T14:10:07;21.33;;;12.63;;
77872;SDS011;67068;52.116;4.440;2023-05-07T14:12:32;25.05;;;13.10;;
77872;SDS011;67068;52.116;4.440;2023-05-07T14:14:58;21.03;;;12.87;;
77872;SDS011;67068;52.116;4.440;2023-05-07T14:17:23;23.07;;;12.93;;
77872;SDS011;67068;52.116;4.440;2023-05-07T14:19:50;21.10;;;13.10;;
77872;SDS011;67068;52.116;4.440;2023-05-07T14:22:15;24.07;;;14.27;;
77872;SDS011;67068;52.116;4.440;2023-05-07T14:24:40;22.63;;;13.57;;
77872;SDS011;67068;52.116;4.440;2023-05-07T14:27:06;21.87;;;15.40;;
77872;SDS011;67068;52.116;4.440;2023-05-07T14:29:31;23.25;;;13.27;;
77872;SDS011;67068;52.116;4.440;2023-05-07T14:31:56;21.90;;;13.03;;
77872;SDS011;67068;52.116;4.440;2023-05-07T14:34:21;20.30;;;13.87;;
77872;SDS011;67068;52.116;4.440;2023-05-07T14:36:47;22.43;;;12.93;;
77872;SDS011;67068;52.116;4.440;2023-05-07T14:39:12;19.60;;;11.48;;
77872;SDS011;67068;52.116;4.440;2023-05-07T14:41:37;17.33;;;11.67;;
77872;SDS011;67068;52.116;4.440;2023-05-07T14:44:02;19.40;;;12.03;;
77872;SDS011;67068;52.116;4.440;2023-05-07T14:46:29;20.33;;;10.93;;